Terminal Aerodrome Forecast
Issued by NWS

Home | Current Version | Previous Version | Text Only | Print | Product List | Glossary On
Versions: 1 2 3 4 5 6 7 8 9 10 11 12
633
FTUS45 KPSR 071720
TAFIPL
TAF
KIPL 071720Z 0718/0818 34008KT P6SM BKN250
     FM080600 28004KT P6SM SCT100 SCT250=

USA.gov is the U.S. government's official web portal to all federal, state and local government web resources and services.